Airport View

Enter AWOS ICAO identifier for current METAR.

ex. KFNL

KFFL 080535Z AUTO 17005KT 10SM CLR 26/26 A2993 RMK A01

8 Jul 2020 05:37

Frequency: 132.025

Phone: 641-472-4548

Other Area AWOS: KAWG - KOTM - KMPZ - KOOA

TAF KOTM 072335Z 0800/0824 20004KT P6SM SCT060 FM081600 19007KT P6SM SCT050